Time;durP1;ratioP1;P1;durP2;ratioP2;P2;SDS_P1;SDS_P2;PMS_P1;PMS_P2;Temp;Humidity;BMP_temperature;BMP_pressure;BME280_temperature;BME280_humidity;BME280_pressure;Samples;Min_cycle;Max_cycle;Signal;HPM_P1;HPM_P2
2022/05/21 00:00:24;;;;;;;11.97;6.83;;;;;;;;;;5043981;28;20277;-75
2022/05/21 00:02:52;;;;;;;9.97;6.73;;;;;;;;;;5044984;28;20210;-75
2022/05/21 00:05:20;;;;;;;10.47;7.53;;;;;;;;;;5043436;28;20215;-75
2022/05/21 00:07:49;;;;;;;13.07;7.60;;;;;;;;;;5042107;28;20200;-75
2022/05/21 00:10:17;;;;;;;16.00;7.23;;;;;;;;;;5045507;28;20209;-76
2022/05/21 00:12:45;;;;;;;13.97;8.20;;;;;;;;;;5041132;28;20219;-75
2022/05/21 00:15:14;;;;;;;14.50;8.70;;;;;;;;;;5045420;28;20242;-75
2022/05/21 00:17:41;;;;;;;16.13;8.70;;;;;;;;;;5043139;28;20209;-76
2022/05/21 00:20:47;;;;;;;14.00;8.67;;;;;;;;;;5044578;28;20309;-75
2022/05/21 00:22:58;;;;;;;18.37;9.80;;;;;;;;;;5044228;28;20214;-75
2022/05/21 00:25:26;;;;;;;14.83;8.53;;;;;;;;;;5043188;28;20238;-75
2022/05/21 00:27:53;;;;;;;15.07;8.63;;;;;;;;;;5046749;28;20290;-76
2022/05/21 00:30:20;;;;;;;19.30;9.00;;;;;;;;;;5041821;28;20239;-74
2022/05/21 00:32:47;;;;;;;18.07;9.27;;;;;;;;;;5044177;28;20228;-75
2022/05/21 00:35:14;;;;;;;13.97;8.63;;;;;;;;;;5042552;28;20683;-75
2022/05/21 00:37:42;;;;;;;16.47;8.83;;;;;;;;;;5039588;28;20203;-76
2022/05/21 00:40:11;;;;;;;13.90;8.43;;;;;;;;;;5043773;28;20221;-75
2022/05/21 00:42:43;;;;;;;18.93;9.53;;;;;;;;;;5044546;28;20226;-76
2022/05/21 00:45:10;;;;;;;14.27;9.20;;;;;;;;;;5039294;28;20558;-75
2022/05/21 00:47:37;;;;;;;13.93;8.60;;;;;;;;;;5045566;28;20203;-75
2022/05/21 00:50:06;;;;;;;13.43;8.30;;;;;;;;;;5040116;28;20199;-76
2022/05/21 00:52:34;;;;;;;16.30;8.57;;;;;;;;;;5040577;28;20231;-76
2022/05/21 00:55:02;;;;;;;15.97;8.53;;;;;;;;;;5043797;28;20210;-75
2022/05/21 00:57:32;;;;;;;13.50;8.10;;;;;;;;;;5041064;28;20235;-75
2022/05/21 01:00:01;;;;;;;14.40;8.13;;;;;;;;;;5042595;28;20200;-76
2022/05/21 01:02:30;;;;;;;17.20;8.13;;;;;;;;;;5043408;28;20301;-75
2022/05/21 01:04:57;;;;;;;12.17;7.83;;;;;;;;;;5038062;28;20246;-75
2022/05/21 01:07:25;;;;;;;15.50;8.27;;;;;;;;;;5041121;28;20253;-75
2022/05/21 01:09:53;;;;;;;13.97;8.17;;;;;;;;;;5042893;28;20298;-75
2022/05/21 01:12:22;;;;;;;17.13;8.93;;;;;;;;;;5041486;28;20309;-76
2022/05/21 01:14:51;;;;;;;14.73;8.20;;;;;;;;;;5040063;28;20195;-75
2022/05/21 01:17:19;;;;;;;17.77;8.70;;;;;;;;;;5043986;28;20213;-75
2022/05/21 01:19:57;;;;;;;15.20;8.37;;;;;;;;;;5044209;28;20744;-76
2022/05/21 01:22:27;;;;;;;19.20;8.67;;;;;;;;;;5038603;28;20255;-76
2022/05/21 01:24:55;;;;;;;12.93;7.97;;;;;;;;;;5042470;28;20289;-76
2022/05/21 01:27:22;;;;;;;11.60;8.13;;;;;;;;;;5039748;28;20290;-76
2022/05/21 01:29:51;;;;;;;14.53;7.67;;;;;;;;;;5044033;28;20219;-76
2022/05/21 01:32:19;;;;;;;19.67;8.03;;;;;;;;;;5041757;28;20334;-75
2022/05/21 01:34:46;;;;;;;18.47;8.37;;;;;;;;;;5044204;28;20204;-76
2022/05/21 01:37:14;;;;;;;13.37;8.33;;;;;;;;;;5045654;28;20210;-75
2022/05/21 01:39:42;;;;;;;14.83;8.93;;;;;;;;;;5047698;28;20293;-75
2022/05/21 01:42:10;;;;;;;16.43;8.13;;;;;;;;;;5044684;28;20245;-75
2022/05/21 01:44:39;;;;;;;11.77;7.80;;;;;;;;;;5045240;28;20198;-75
2022/05/21 01:47:07;;;;;;;15.93;8.47;;;;;;;;;;5047904;28;20202;-75
2022/05/21 01:49:34;;;;;;;19.97;9.03;;;;;;;;;;5043121;28;20218;-75
2022/05/21 01:52:01;;;;;;;14.37;8.67;;;;;;;;;;5045331;28;20726;-75
2022/05/21 01:54:29;;;;;;;14.47;8.80;;;;;;;;;;5045811;28;20231;-75
2022/05/21 01:56:57;;;;;;;15.07;9.20;;;;;;;;;;5045576;28;20215;-75
2022/05/21 01:59:25;;;;;;;17.27;10.63;;;;;;;;;;5045481;28;20735;-75
2022/05/21 02:01:52;;;;;;;20.20;10.53;;;;;;;;;;5043958;28;20310;-76
2022/05/21 02:04:20;;;;;;;20.03;11.20;;;;;;;;;;5043403;28;20303;-75
2022/05/21 02:06:48;;;;;;;21.80;11.93;;;;;;;;;;5045775;28;20230;-76
2022/05/21 02:09:16;;;;;;;20.93;11.17;;;;;;;;;;5045387;28;20211;-75
2022/05/21 02:11:45;;;;;;;22.50;11.67;;;;;;;;;;5042807;28;20238;-75
2022/05/21 02:14:13;;;;;;;20.83;11.00;;;;;;;;;;5048297;28;20235;-76
2022/05/21 02:16:41;;;;;;;21.50;12.13;;;;;;;;;;5041814;28;20294;-76
2022/05/21 02:19:08;;;;;;;22.10;12.73;;;;;;;;;;5047815;28;20210;-76
2022/05/21 02:21:37;;;;;;;23.07;12.30;;;;;;;;;;5044316;28;20227;-76
2022/05/21 02:24:04;;;;;;;21.33;12.80;;;;;;;;;;5041883;28;20298;-76
2022/05/21 02:26:34;;;;;;;23.97;13.07;;;;;;;;;;5046222;28;20203;-76
2022/05/21 02:29:02;;;;;;;27.60;13.83;;;;;;;;;;5047131;28;20618;-75
2022/05/21 02:31:30;;;;;;;22.47;12.47;;;;;;;;;;5046932;28;20797;-76
2022/05/21 02:33:57;;;;;;;20.07;12.47;;;;;;;;;;5044810;28;20246;-77
2022/05/21 02:41:57;;;;;;;22.13;12.03;;;;;;;;;;5031351;28;20589;-76
2022/05/21 02:44:24;;;;;;;22.67;12.60;;;;;;;;;;5044572;28;20726;-76
2022/05/21 02:46:53;;;;;;;20.23;11.80;;;;;;;;;;5044985;28;20202;-75
2022/05/21 02:49:20;;;;;;;18.17;10.40;;;;;;;;;;5048216;28;20314;-77
2022/05/21 02:51:48;;;;;;;19.17;11.10;;;;;;;;;;5045269;28;20323;-76
2022/05/21 02:54:15;;;;;;;19.27;10.17;;;;;;;;;;5045778;28;20250;-77
2022/05/21 02:56:46;;;;;;;20.90;10.73;;;;;;;;;;5044618;28;20235;-77
2022/05/21 02:59:14;;;;;;;17.40;10.43;;;;;;;;;;5046109;28;20661;-77
2022/05/21 03:01:41;;;;;;;17.10;10.63;;;;;;;;;;5040894;28;20347;-77
2022/05/21 03:04:09;;;;;;;17.23;9.87;;;;;;;;;;5045821;28;20291;-77
2022/05/21 03:06:37;;;;;;;16.33;9.63;;;;;;;;;;5045567;28;20297;-77
2022/05/21 03:11:49;;;;;;;18.10;9.60;;;;;;;;;;5046753;28;20222;-77
2022/05/21 03:14:16;;;;;;;17.30;9.43;;;;;;;;;;5046961;28;20226;-77
2022/05/21 03:16:43;;;;;;;22.17;10.17;;;;;;;;;;5044937;28;20215;-77
2022/05/21 03:19:12;;;;;;;17.73;9.60;;;;;;;;;;5046797;28;20238;-78
2022/05/21 03:21:39;;;;;;;17.70;9.33;;;;;;;;;;5045501;28;20236;-78
2022/05/21 03:24:08;;;;;;;16.87;10.03;;;;;;;;;;5047047;28;20265;-77
2022/05/21 03:26:35;;;;;;;22.40;10.03;;;;;;;;;;5045004;28;20248;-77
2022/05/21 03:29:02;;;;;;;21.00;10.57;;;;;;;;;;5047595;28;20234;-77
2022/05/21 03:31:29;;;;;;;17.30;9.90;;;;;;;;;;5045729;28;20581;-77
2022/05/21 03:33:56;;;;;;;15.90;8.67;;;;;;;;;;5043039;28;20226;-77
2022/05/21 03:36:25;;;;;;;21.13;8.93;;;;;;;;;;5048300;28;20209;-77
2022/05/21 03:38:52;;;;;;;17.40;9.17;;;;;;;;;;5041541;28;20287;-77
2022/05/21 03:41:19;;;;;;;15.93;8.53;;;;;;;;;;5047189;28;20366;-77
2022/05/21 03:43:47;;;;;;;18.67;9.20;;;;;;;;;;5047929;28;20218;-77
2022/05/21 03:46:14;;;;;;;18.03;9.23;;;;;;;;;;5045634;28;20207;-77
2022/05/21 03:48:41;;;;;;;18.33;8.60;;;;;;;;;;5047801;28;20293;-77
2022/05/21 03:51:08;;;;;;;17.73;8.00;;;;;;;;;;5046276;28;20322;-77
2022/05/21 03:53:37;;;;;;;13.83;7.43;;;;;;;;;;5046017;28;20215;-77
2022/05/21 03:56:05;;;;;;;11.63;7.20;;;;;;;;;;5048063;28;20294;-77
2022/05/21 03:58:33;;;;;;;11.07;6.80;;;;;;;;;;5047003;28;20217;-77
2022/05/21 04:01:00;;;;;;;11.83;6.40;;;;;;;;;;5046677;28;20257;-77
2022/05/21 04:03:28;;;;;;;14.10;5.77;;;;;;;;;;5046001;28;20223;-77
2022/05/21 04:05:55;;;;;;;10.27;5.37;;;;;;;;;;5045650;28;20207;-78
2022/05/21 04:08:22;;;;;;;9.00;4.83;;;;;;;;;;5043397;28;20583;-77
2022/05/21 04:10:51;;;;;;;7.40;4.17;;;;;;;;;;5044924;28;20311;-77
2022/05/21 04:13:18;;;;;;;12.97;4.20;;;;;;;;;;5044736;28;20289;-77
2022/05/21 04:15:46;;;;;;;8.23;4.70;;;;;;;;;;5043122;28;20242;-77
2022/05/21 04:18:13;;;;;;;7.03;4.20;;;;;;;;;;5046471;28;20580;-78
2022/05/21 04:20:41;;;;;;;5.33;3.80;;;;;;;;;;5042254;28;20717;-77
2022/05/21 04:23:08;;;;;;;5.83;3.47;;;;;;;;;;5043947;28;20205;-77
2022/05/21 04:25:35;;;;;;;4.53;2.93;;;;;;;;;;5046877;28;20210;-77
2022/05/21 04:28:04;;;;;;;5.87;2.90;;;;;;;;;;5044808;28;20302;-77
2022/05/21 04:30:35;;;;;;;5.00;2.80;;;;;;;;;;5044697;28;20242;-77
2022/05/21 04:33:02;;;;;;;5.20;2.57;;;;;;;;;;5051598;28;20242;-78
2022/05/21 04:36:17;;;;;;;6.40;2.17;;;;;;;;;;5054006;28;20283;-77
2022/05/21 04:38:17;;;;;;;9.60;1.90;;;;;;;;;;5050766;28;20294;-77
2022/05/21 04:40:44;;;;;;;5.10;1.90;;;;;;;;;;5055593;28;20251;-77
2022/05/21 04:43:13;;;;;;;14.07;1.83;;;;;;;;;;5056109;28;20277;-77
2022/05/21 04:45:40;;;;;;;3.37;1.70;;;;;;;;;;5044198;28;20637;-77
2022/05/21 04:48:08;;;;;;;4.47;1.73;;;;;;;;;;5047911;28;20277;-76
2022/05/21 04:50:36;;;;;;;8.37;1.40;;;;;;;;;;5043523;28;20306;-76
2022/05/21 04:53:03;;;;;;;4.97;1.60;;;;;;;;;;5045159;28;20395;-77
2022/05/21 04:55:31;;;;;;;6.57;1.73;;;;;;;;;;5045618;28;20229;-77
2022/05/21 04:57:58;;;;;;;7.33;1.70;;;;;;;;;;5044577;28;20204;-77
2022/05/21 05:00:28;;;;;;;5.53;1.50;;;;;;;;;;5045930;28;20203;-77
2022/05/21 05:02:55;;;;;;;6.27;1.80;;;;;;;;;;5044668;28;20730;-76
2022/05/21 05:05:23;;;;;;;6.23;1.60;;;;;;;;;;5042114;28;20214;-77
2022/05/21 05:07:50;;;;;;;6.73;1.33;;;;;;;;;;5044522;28;20294;-77
2022/05/21 05:10:17;;;;;;;5.83;1.50;;;;;;;;;;5043483;28;20294;-77
2022/05/21 05:12:44;;;;;;;4.77;1.30;;;;;;;;;;5041544;28;20282;-77
2022/05/21 05:15:12;;;;;;;3.83;1.43;;;;;;;;;;5045278;28;20226;-76
2022/05/21 05:17:40;;;;;;;1.87;1.23;;;;;;;;;;5046186;28;20242;-77
2022/05/21 05:20:08;;;;;;;7.30;1.50;;;;;;;;;;5040841;28;20210;-77
2022/05/21 05:22:35;;;;;;;5.00;1.70;;;;;;;;;;5042678;28;20334;-77
2022/05/21 05:25:04;;;;;;;7.63;1.67;;;;;;;;;;5046479;28;20302;-77
2022/05/21 05:27:31;;;;;;;5.23;1.63;;;;;;;;;;5039975;28;20211;-77
2022/05/21 05:29:58;;;;;;;7.33;1.53;;;;;;;;;;5045035;28;20641;-77
2022/05/21 05:32:25;;;;;;;6.03;1.30;;;;;;;;;;5041094;28;20274;-78
2022/05/21 05:34:54;;;;;;;4.83;1.27;;;;;;;;;;5043616;28;20266;-77
2022/05/21 05:37:21;;;;;;;7.57;1.60;;;;;;;;;;5044623;28;20218;-77
2022/05/21 05:39:48;;;;;;;5.03;1.20;;;;;;;;;;5042170;28;20252;-77
2022/05/21 05:42:17;;;;;;;9.87;1.63;;;;;;;;;;5045164;28;20251;-77
2022/05/21 05:44:44;;;;;;;6.53;1.30;;;;;;;;;;5044663;28;20209;-77
2022/05/21 05:47:11;;;;;;;3.57;1.10;;;;;;;;;;5042697;28;20210;-77
2022/05/21 05:49:38;;;;;;;5.47;1.20;;;;;;;;;;5041716;28;20262;-77
2022/05/21 05:52:09;;;;;;;7.20;1.30;;;;;;;;;;5040028;28;20318;-77
2022/05/21 05:54:38;;;;;;;6.80;1.20;;;;;;;;;;5045178;28;20227;-77
2022/05/21 05:57:09;;;;;;;5.00;1.43;;;;;;;;;;5041987;28;20203;-77
2022/05/21 05:59:51;;;;;;;3.17;0.93;;;;;;;;;;5041832;28;20210;-78
2022/05/21 06:05:04;;;;;;;5.83;1.00;;;;;;;;;;5044122;28;20676;-77
2022/05/21 06:07:33;;;;;;;4.93;1.33;;;;;;;;;;5037633;28;20230;-78
2022/05/21 06:10:02;;;;;;;6.37;1.00;;;;;;;;;;5041980;28;20340;-77
2022/05/21 06:12:29;;;;;;;3.67;0.90;;;;;;;;;;5039086;28;20231;-77
2022/05/21 06:14:57;;;;;;;7.43;1.30;;;;;;;;;;5041075;28;20373;-77
2022/05/21 06:17:24;;;;;;;4.63;0.90;;;;;;;;;;5043871;28;20218;-76
2022/05/21 06:19:51;;;;;;;5.73;1.17;;;;;;;;;;5034073;28;20224;-77
2022/05/21 06:22:18;;;;;;;2.57;1.03;;;;;;;;;;5043294;28;20306;-76
2022/05/21 06:24:47;;;;;;;3.00;0.83;;;;;;;;;;5045866;28;20634;-76
2022/05/21 06:27:14;;;;;;;7.37;1.30;;;;;;;;;;5044959;28;20226;-76
2022/05/21 06:29:41;;;;;;;3.57;1.17;;;;;;;;;;5046673;28;20232;-76
2022/05/21 06:32:09;;;;;;;4.83;1.13;;;;;;;;;;5042121;28;20270;-76
2022/05/21 06:34:37;;;;;;;6.40;1.47;;;;;;;;;;5044651;28;20378;-76
2022/05/21 06:37:05;;;;;;;6.03;1.03;;;;;;;;;;5045163;28;20659;-76
2022/05/21 06:39:32;;;;;;;4.77;1.30;;;;;;;;;;5044485;28;20484;-75
2022/05/21 06:42:01;;;;;;;2.43;1.00;;;;;;;;;;5043064;28;20305;-76
2022/05/21 06:44:28;;;;;;;4.20;1.20;;;;;;;;;;5044539;28;20206;-76
2022/05/21 06:46:55;;;;;;;5.60;0.87;;;;;;;;;;5044395;28;20217;-76
2022/05/21 06:49:23;;;;;;;4.83;1.03;;;;;;;;;;5046998;28;20297;-76
2022/05/21 06:51:54;;;;;;;4.97;1.07;;;;;;;;;;5043301;28;20742;-77
2022/05/21 06:54:21;;;;;;;13.40;1.30;;;;;;;;;;5046241;28;20233;-78
2022/05/21 06:56:48;;;;;;;4.63;1.50;;;;;;;;;;5046977;28;20290;-77
2022/05/21 06:59:17;;;;;;;5.77;1.20;;;;;;;;;;5041863;28;20210;-76
2022/05/21 07:01:44;;;;;;;6.67;1.37;;;;;;;;;;5043446;28;20237;-77
2022/05/21 07:04:13;;;;;;;12.63;1.40;;;;;;;;;;5047836;28;20266;-78
2022/05/21 07:09:31;;;;;;;9.57;1.77;;;;;;;;;;5024979;28;20200;-76
2022/05/21 07:11:58;;;;;;;9.03;1.70;;;;;;;;;;5041020;28;20307;-77
2022/05/21 07:14:27;;;;;;;8.60;1.90;;;;;;;;;;5045442;28;20227;-77
2022/05/21 07:16:54;;;;;;;7.63;1.70;;;;;;;;;;5045541;28;20218;-77
2022/05/21 07:19:21;;;;;;;5.77;1.53;;;;;;;;;;5046233;28;20500;-77
2022/05/21 07:21:48;;;;;;;10.80;1.53;;;;;;;;;;5042629;28;20229;-77
2022/05/21 07:24:15;;;;;;;4.53;1.73;;;;;;;;;;5041027;28;20235;-77
2022/05/21 07:26:46;;;;;;;8.83;1.70;;;;;;;;;;5045247;28;20235;-77
2022/05/21 07:29:14;;;;;;;5.43;2.10;;;;;;;;;;5047438;28;20278;-77
2022/05/21 07:31:42;;;;;;;7.07;2.17;;;;;;;;;;5047902;28;20262;-76
2022/05/21 07:34:10;;;;;;;10.03;2.30;;;;;;;;;;5042533;28;20254;-76
2022/05/21 07:36:37;;;;;;;15.03;2.40;;;;;;;;;;5045653;28;20218;-78
2022/05/21 07:39:04;;;;;;;5.73;1.93;;;;;;;;;;5044510;28;20213;-77
2022/05/21 07:41:31;;;;;;;8.73;2.27;;;;;;;;;;5044236;28;20269;-76
2022/05/21 07:43:58;;;;;;;4.20;1.90;;;;;;;;;;5043784;28;20214;-77
2022/05/21 07:46:25;;;;;;;6.37;2.10;;;;;;;;;;5045327;28;20215;-76
2022/05/21 07:48:54;;;;;;;7.93;2.43;;;;;;;;;;5045221;28;20286;-77
2022/05/21 07:51:21;;;;;;;7.83;2.40;;;;;;;;;;5034725;28;20321;-76
2022/05/21 07:53:48;;;;;;;6.07;2.03;;;;;;;;;;5030695;28;20199;-77
2022/05/21 07:56:15;;;;;;;5.17;1.90;;;;;;;;;;5045806;28;20334;-77
2022/05/21 07:58:43;;;;;;;6.63;2.07;;;;;;;;;;5043049;28;20288;-77
2022/05/21 08:01:12;;;;;;;6.90;1.90;;;;;;;;;;5045324;28;20219;-77
2022/05/21 08:03:39;;;;;;;6.77;1.90;;;;;;;;;;5044588;28;20290;-76
2022/05/21 08:06:07;;;;;;;5.27;2.00;;;;;;;;;;5041261;28;20761;-77
2022/05/21 08:08:35;;;;;;;8.93;2.03;;;;;;;;;;5041712;28;20206;-77
2022/05/21 08:11:02;;;;;;;3.57;1.77;;;;;;;;;;5043986;28;20233;-77
2022/05/21 08:13:29;;;;;;;6.90;1.83;;;;;;;;;;5040447;28;20209;-77
2022/05/21 08:15:56;;;;;;;4.77;1.80;;;;;;;;;;5041814;28;20313;-77
2022/05/21 08:18:24;;;;;;;5.43;2.10;;;;;;;;;;5043660;28;20210;-77
2022/05/21 08:20:53;;;;;;;8.37;1.47;;;;;;;;;;5044619;28;20701;-77
2022/05/21 08:28:52;;;;;;;6.43;2.07;;;;;;;;;;5042747;28;20235;-77
2022/05/21 08:31:19;;;;;;;6.77;1.90;;;;;;;;;;5040119;28;20721;-78
2022/05/21 08:33:46;;;;;;;6.57;2.20;;;;;;;;;;5042801;28;20298;-77
2022/05/21 08:36:14;;;;;;;7.03;2.17;;;;;;;;;;5042291;28;20468;-77
2022/05/21 08:38:42;;;;;;;5.07;1.67;;;;;;;;;;5041716;28;20594;-77
2022/05/21 08:41:12;;;;;;;7.27;1.90;;;;;;;;;;5041011;28;20326;-78
2022/05/21 08:43:47;;;;;;;5.47;2.07;;;;;;;;;;5043938;28;20565;-78
2022/05/21 08:46:20;;;;;;;4.53;1.43;;;;;;;;;;5037516;28;20194;-78
2022/05/21 08:48:52;;;;;;;6.00;1.80;;;;;;;;;;5041032;28;20199;-77
2022/05/21 08:51:21;;;;;;;4.87;1.73;;;;;;;;;;5042760;28;20224;-77
2022/05/21 08:53:51;;;;;;;6.87;2.27;;;;;;;;;;5041794;28;20797;-77
2022/05/21 08:56:19;;;;;;;9.97;2.23;;;;;;;;;;5040324;28;20226;-76
2022/05/21 08:58:49;;;;;;;5.17;2.00;;;;;;;;;;5045671;28;20439;-78
2022/05/21 09:01:18;;;;;;;8.13;2.07;;;;;;;;;;5044379;28;20248;-77
2022/05/21 09:03:45;;;;;;;11.33;2.10;;;;;;;;;;5042851;28;20208;-77
2022/05/21 09:06:15;;;;;;;8.53;2.20;;;;;;;;;;5041828;28;20203;-77
2022/05/21 09:08:47;;;;;;;5.63;2.10;;;;;;;;;;5042369;28;20191;-77
2022/05/21 09:11:17;;;;;;;7.37;2.40;;;;;;;;;;5041425;28;20222;-76
2022/05/21 09:13:47;;;;;;;4.27;1.90;;;;;;;;;;5043863;28;20202;-77
2022/05/21 09:19:00;;;;;;;5.07;2.10;;;;;;;;;;5042214;28;20202;-77
2022/05/21 09:21:29;;;;;;;7.53;2.40;;;;;;;;;;5042208;28;20318;-77
2022/05/21 09:23:57;;;;;;;8.97;2.20;;;;;;;;;;5043835;28;20230;-77
2022/05/21 09:26:27;;;;;;;6.23;2.30;;;;;;;;;;5042774;28;20284;-74
2022/05/21 09:29:11;;;;;;;9.83;2.20;;;;;;;;;;5043609;28;20217;-77
2022/05/21 09:31:38;;;;;;;4.40;2.17;;;;;;;;;;5044340;28;20242;-78
2022/05/21 09:34:16;;;;;;;5.07;2.00;;;;;;;;;;5043003;28;20302;-76
2022/05/21 09:36:44;;;;;;;8.20;2.03;;;;;;;;;;5040877;28;20235;-77
2022/05/21 09:39:11;;;;;;;9.83;2.30;;;;;;;;;;5045710;28;20207;-77
2022/05/21 09:41:39;;;;;;;4.97;1.80;;;;;;;;;;5039923;28;20235;-78
2022/05/21 09:47:10;;;;;;;5.50;2.10;;;;;;;;;;5040632;28;20210;-77
2022/05/21 09:49:39;;;;;;;5.87;2.40;;;;;;;;;;5039226;28;20214;-78
2022/05/21 09:52:07;;;;;;;6.07;2.20;;;;;;;;;;5041218;28;20773;-76
2022/05/21 09:54:35;;;;;;;10.27;2.50;;;;;;;;;;5040192;28;20213;-77
2022/05/21 09:57:04;;;;;;;5.13;2.30;;;;;;;;;;5040370;28;20285;-77
2022/05/21 09:59:33;;;;;;;5.27;1.83;;;;;;;;;;5044365;28;20211;-76
2022/05/21 10:02:02;;;;;;;7.80;2.03;;;;;;;;;;5044566;28;20671;-77
2022/05/21 10:04:34;;;;;;;6.50;2.07;;;;;;;;;;5047419;28;20445;-77
2022/05/21 10:07:03;;;;;;;8.50;1.60;;;;;;;;;;5047427;28;20203;-76
2022/05/21 10:12:22;;;;;;;7.23;1.60;;;;;;;;;;5046803;28;20245;-76
2022/05/21 10:14:51;;;;;;;5.27;1.90;;;;;;;;;;5044963;28;20207;-75
2022/05/21 10:17:23;;;;;;;5.07;1.63;;;;;;;;;;5043434;28;20761;-75
2022/05/21 10:19:54;;;;;;;5.40;1.70;;;;;;;;;;5046834;28;20205;-76
2022/05/21 10:22:31;;;;;;;5.97;1.73;;;;;;;;;;5041457;28;20710;-76
2022/05/21 10:25:03;;;;;;;5.53;1.80;;;;;;;;;;5042231;28;20195;-75
2022/05/21 10:27:46;;;;;;;3.63;1.30;;;;;;;;;;5043397;28;20588;-76
2022/05/21 10:30:15;;;;;;;7.07;1.70;;;;;;;;;;5043453;28;20299;-75
2022/05/21 10:32:55;;;;;;;4.43;1.37;;;;;;;;;;5044082;28;20229;-76
2022/05/21 10:35:30;;;;;;;3.63;1.20;;;;;;;;;;5045710;28;20217;-77
2022/05/21 10:38:01;;;;;;;6.90;1.50;;;;;;;;;;5045040;28;20305;-75
2022/05/21 10:40:32;;;;;;;3.97;1.80;;;;;;;;;;5045075;28;20207;-75
2022/05/21 10:43:10;;;;;;;5.63;1.30;;;;;;;;;;5044107;28;20728;-76
2022/05/21 10:45:41;;;;;;;7.07;1.60;;;;;;;;;;5044911;28;20282;-76
2022/05/21 10:48:23;;;;;;;6.07;1.20;;;;;;;;;;5046884;28;20207;-75
2022/05/21 10:50:54;;;;;;;10.50;1.53;;;;;;;;;;5044315;28;20671;-76
2022/05/21 10:53:36;;;;;;;5.17;1.43;;;;;;;;;;5044669;28;20198;-77
2022/05/21 10:56:07;;;;;;;4.67;1.67;;;;;;;;;;5033238;28;20227;-77
2022/05/21 10:58:48;;;;;;;4.67;1.50;;;;;;;;;;5045380;28;20217;-76
2022/05/21 11:01:16;;;;;;;4.77;1.40;;;;;;;;;;5048103;28;20222;-76
2022/05/21 11:04:07;;;;;;;6.77;1.60;;;;;;;;;;5042685;28;20288;-76
2022/05/21 11:06:42;;;;;;;6.30;1.50;;;;;;;;;;5022432;28;20650;-75
2022/05/21 11:09:13;;;;;;;9.90;1.53;;;;;;;;;;5040198;28;20211;-76
2022/05/21 11:11:47;;;;;;;4.30;1.50;;;;;;;;;;5042926;28;20223;-76
2022/05/21 11:14:17;;;;;;;6.97;1.57;;;;;;;;;;5041571;28;20231;-75
2022/05/21 11:16:46;;;;;;;10.73;1.90;;;;;;;;;;5046511;28;20255;-76
2022/05/21 11:19:16;;;;;;;4.73;1.23;;;;;;;;;;5039397;28;20234;-76
2022/05/21 11:21:45;;;;;;;8.17;1.20;;;;;;;;;;5041613;28;20231;-76
2022/05/21 11:24:15;;;;;;;5.00;1.30;;;;;;;;;;5045295;28;20213;-76
2022/05/21 11:26:44;;;;;;;7.03;1.13;;;;;;;;;;5041879;28;20199;-76
2022/05/21 11:29:12;;;;;;;7.90;1.53;;;;;;;;;;5046384;28;20205;-76
2022/05/21 11:37:22;;;;;;;3.23;1.30;;;;;;;;;;5044256;28;20677;-76
2022/05/21 11:39:50;;;;;;;3.50;1.10;;;;;;;;;;5045312;28;20214;-75
2022/05/21 11:42:19;;;;;;;5.70;1.47;;;;;;;;;;5042332;28;20227;-76
2022/05/21 11:44:56;;;;;;;3.97;1.43;;;;;;;;;;5040276;28;20639;-76
2022/05/21 11:47:33;;;;;;;4.67;1.50;;;;;;;;;;5043806;28;20277;-76
2022/05/21 11:50:10;;;;;;;7.00;1.30;;;;;;;;;;5047473;28;20210;-75
2022/05/21 11:52:54;;;;;;;8.03;1.60;;;;;;;;;;5044803;28;20238;-76
2022/05/21 11:55:24;;;;;;;2.00;1.20;;;;;;;;;;5044071;28;20207;-76
2022/05/21 11:57:53;;;;;;;8.13;1.60;;;;;;;;;;5044702;28;20306;-76
2022/05/21 12:00:42;;;;;;;10.07;1.70;;;;;;;;;;5047331;28;20238;-76
2022/05/21 12:03:15;;;;;;;8.43;1.50;;;;;;;;;;5034821;28;20260;-76
2022/05/21 12:05:51;;;;;;;2.93;1.10;;;;;;;;;;5042664;28;20208;-76
2022/05/21 12:08:36;;;;;;;9.57;1.40;;;;;;;;;;5045677;28;20215;-76
2022/05/21 12:11:05;;;;;;;6.23;1.43;;;;;;;;;;5043296;28;20257;-76
2022/05/21 12:13:50;;;;;;;3.80;1.50;;;;;;;;;;5043149;28;20286;-76
2022/05/21 12:16:36;;;;;;;6.73;1.40;;;;;;;;;;5040270;28;20230;-75
2022/05/21 12:19:05;;;;;;;5.80;1.03;;;;;;;;;;5040222;28;20222;-76
2022/05/21 12:21:51;;;;;;;5.33;1.40;;;;;;;;;;5044475;28;20313;-76
2022/05/21 12:24:35;;;;;;;2.53;1.10;;;;;;;;;;5044558;28;20305;-76
2022/05/21 12:27:05;;;;;;;5.37;1.37;;;;;;;;;;5041615;28;20285;-77
2022/05/21 12:29:33;;;;;;;8.13;1.53;;;;;;;;;;5046982;28;20648;-76
2022/05/21 12:32:02;;;;;;;2.47;1.20;;;;;;;;;;5043691;28;20862;-76
2022/05/21 12:34:39;;;;;;;4.17;1.43;;;;;;;;;;5046200;28;20237;-76
2022/05/21 12:37:10;;;;;;;6.60;1.93;;;;;;;;;;5042240;28;20215;-76
2022/05/21 12:39:54;;;;;;;6.60;1.60;;;;;;;;;;5045888;28;20768;-76
2022/05/21 12:42:23;;;;;;;4.93;1.50;;;;;;;;;;5045074;28;20310;-76
2022/05/21 12:44:51;;;;;;;6.07;1.33;;;;;;;;;;5043468;28;20218;-76
2022/05/21 12:47:23;;;;;;;6.60;1.33;;;;;;;;;;5046255;28;20213;-75
2022/05/21 12:49:52;;;;;;;3.30;1.13;;;;;;;;;;5042021;28;20206;-77
2022/05/21 12:52:24;;;;;;;8.10;1.40;;;;;;;;;;5046477;28;20219;-76
2022/05/21 12:54:52;;;;;;;5.80;1.20;;;;;;;;;;5043809;28;20739;-76
2022/05/21 12:57:26;;;;;;;8.20;1.40;;;;;;;;;;5041256;28;20239;-76
2022/05/21 13:00:04;;;;;;;9.67;1.63;;;;;;;;;;5044044;28;20585;-76
2022/05/21 13:02:40;;;;;;;3.60;1.10;;;;;;;;;;5045746;28;20317;-76
2022/05/21 13:05:12;;;;;;;4.33;1.33;;;;;;;;;;5046577;28;20591;-77
2022/05/21 13:07:41;;;;;;;6.03;1.23;;;;;;;;;;5045973;28;20275;-76
2022/05/21 13:10:16;;;;;;;5.10;1.20;;;;;;;;;;5043787;28;20200;-77
2022/05/21 13:12:45;;;;;;;6.93;1.30;;;;;;;;;;5042168;28;20230;-77
2022/05/21 13:15:13;;;;;;;5.33;1.10;;;;;;;;;;5041874;28;20207;-76
2022/05/21 13:17:45;;;;;;;4.70;1.40;;;;;;;;;;5041824;28;20227;-76
2022/05/21 13:20:16;;;;;;;8.37;1.33;;;;;;;;;;5038527;28;20236;-76
2022/05/21 13:22:58;;;;;;;6.90;1.60;;;;;;;;;;5042250;28;20308;-76
2022/05/21 13:25:26;;;;;;;5.10;1.43;;;;;;;;;;5043137;28;20211;-76
2022/05/21 13:27:55;;;;;;;7.60;1.50;;;;;;;;;;5044624;28;20206;-76
2022/05/21 13:30:24;;;;;;;4.33;1.20;;;;;;;;;;5042203;28;20289;-76
2022/05/21 13:32:55;;;;;;;3.93;1.30;;;;;;;;;;5047169;28;20205;-77
2022/05/21 13:35:28;;;;;;;6.10;1.47;;;;;;;;;;5046506;28;20597;-76
2022/05/21 13:37:55;;;;;;;6.70;1.50;;;;;;;;;;5046713;28;20235;-76
2022/05/21 13:40:24;;;;;;;9.10;1.60;;;;;;;;;;5047408;28;20256;-76
2022/05/21 13:42:53;;;;;;;4.30;1.30;;;;;;;;;;5047233;28;20209;-76
2022/05/21 13:45:22;;;;;;;7.40;1.57;;;;;;;;;;5047887;28;20221;-76
2022/05/21 13:47:51;;;;;;;7.87;1.43;;;;;;;;;;5048010;28;20219;-76
2022/05/21 13:50:20;;;;;;;2.57;0.90;;;;;;;;;;5050061;28;20214;-76
2022/05/21 13:52:49;;;;;;;7.70;1.10;;;;;;;;;;5048288;28;20203;-75
2022/05/21 13:55:16;;;;;;;6.83;1.40;;;;;;;;;;5047933;28;20273;-76
2022/05/21 13:57:44;;;;;;;3.27;1.20;;;;;;;;;;5048474;28;20306;-77
2022/05/21 14:00:28;;;;;;;5.93;1.37;;;;;;;;;;5048309;28;20293;-76
2022/05/21 14:02:55;;;;;;;8.77;1.40;;;;;;;;;;5046474;28;20222;-75
2022/05/21 14:05:25;;;;;;;3.00;1.40;;;;;;;;;;5045112;28;20294;-76
2022/05/21 14:07:56;;;;;;;4.53;1.60;;;;;;;;;;5049100;28;20199;-76
2022/05/21 14:10:43;;;;;;;9.23;1.53;;;;;;;;;;5047037;28;20305;-76
2022/05/21 14:13:27;;;;;;;6.47;1.73;;;;;;;;;;5047421;28;20229;-76
2022/05/21 14:15:55;;;;;;;7.63;1.63;;;;;;;;;;5045763;28;20203;-77
2022/05/21 14:18:27;;;;;;;3.03;1.30;;;;;;;;;;5047788;28;20254;-76
2022/05/21 14:20:58;;;;;;;5.00;1.23;;;;;;;;;;5046844;28;20231;-76
2022/05/21 14:23:30;;;;;;;4.03;1.30;;;;;;;;;;5045146;28;20210;-77
2022/05/21 14:26:14;;;;;;;4.27;1.33;;;;;;;;;;5044832;28;20264;-76
2022/05/21 14:28:41;;;;;;;5.03;1.20;;;;;;;;;;5044242;28;20208;-76
2022/05/21 14:31:27;;;;;;;5.23;1.53;;;;;;;;;;5044905;28;20321;-76
2022/05/21 14:33:55;;;;;;;8.33;1.60;;;;;;;;;;5048459;28;20712;-77
2022/05/21 14:36:23;;;;;;;6.83;1.60;;;;;;;;;;5046395;28;20203;-76
2022/05/21 14:38:51;;;;;;;4.90;1.53;;;;;;;;;;5048407;28;20646;-77
2022/05/21 14:41:29;;;;;;;11.57;1.60;;;;;;;;;;5049662;28;20318;-76
2022/05/21 14:43:56;;;;;;;6.60;1.27;;;;;;;;;;5045055;28;20198;-76
2022/05/21 14:49:08;;;;;;;11.67;1.70;;;;;;;;;;5046653;28;20207;-75
2022/05/21 14:54:24;;;;;;;7.20;1.70;;;;;;;;;;5049164;28;20202;-76
2022/05/21 14:56:51;;;;;;;7.10;1.30;;;;;;;;;;5047241;28;20245;-75
2022/05/21 14:59:18;;;;;;;7.70;1.60;;;;;;;;;;5047926;28;20294;-76
2022/05/21 15:01:46;;;;;;;9.33;1.87;;;;;;;;;;5047417;28;20223;-76
2022/05/21 15:04:13;;;;;;;5.33;1.67;;;;;;;;;;5047746;28;20298;-76
2022/05/21 15:06:41;;;;;;;7.83;1.50;;;;;;;;;;5046914;28;20246;-76
2022/05/21 15:09:09;;;;;;;9.40;1.80;;;;;;;;;;5047232;28;20586;-76
2022/05/21 15:11:37;;;;;;;11.00;2.03;;;;;;;;;;5042108;28;20223;-75
2022/05/21 15:14:04;;;;;;;3.73;1.40;;;;;;;;;;5045128;28;20269;-76
2022/05/21 15:16:32;;;;;;;6.40;1.70;;;;;;;;;;5042946;28;20244;-75
2022/05/21 15:19:00;;;;;;;5.40;1.70;;;;;;;;;;5046461;28;20311;-76
2022/05/21 15:21:28;;;;;;;4.90;1.13;;;;;;;;;;5044222;28;20305;-75
2022/05/21 15:23:56;;;;;;;8.40;1.50;;;;;;;;;;5045439;28;20298;-76
2022/05/21 15:26:23;;;;;;;8.47;1.80;;;;;;;;;;5045895;28;20223;-75
2022/05/21 15:28:52;;;;;;;6.83;1.40;;;;;;;;;;5047398;28;20276;-76
2022/05/21 15:31:20;;;;;;;6.87;1.50;;;;;;;;;;5047733;28;20242;-77